Terminal Aerodrome Forecast
Issued by NWS

Home | Current Version | Previous Version | Text Only | Print | Product List | Glossary On
Versions: 1 2 3 4 5 6 7 8 9 10 11 12
000
FTUS45 KABQ 041700 RRA
TAFROW
TAF
KROW 041742Z 0418/0518 16020G30KT P6SM VCTS SCT060CB
      TEMPO 0420/0424 4SM +TSRA BR BKN025CB
     FM050000 14012KT P6SM TSRA OVC040CB
     FM050700 10010KT P6SM -TSRA OVC025CB
     FM051000 18007KT 5SM RA BR OVC015=

USA.gov is the U.S. government's official web portal to all federal, state and local government web resources and services.